Time,TemperatureF,DewpointF,PressureIn,WindDirection,WindDirectionDegrees,WindSpeedMPH,WindSpeedGustMPH,Humidity,HourlyPrecipIn,Conditions,Clouds,dailyrainin,SoftwareType,DateUTC
2013-09-22 00:00:00,63.6,62.1,29.72,NNE,29,3.5,3.5,95,0.03,CLR,,0.90,WeatherDisplay:10.37,2013-09-22 04:00:00,
2013-09-22 00:01:00,63.6,62.1,29.72,NNE,30,3.5,0.0,95,0.03,CLR,,0.90,WeatherDisplay:10.37,2013-09-22 04:01:00,
2013-09-22 00:02:00,63.6,62.1,29.72,NE,34,0.0,0.0,95,0.03,RA,,0.00,WeatherDisplay:10.37,2013-09-22 04:02:00,
2013-09-22 00:07:00,63.6,62.1,29.72,NNE,17,0.0,0.0,95,0.03,RA,,0.00,WeatherDisplay:10.37,2013-09-22 04:07:00,
2013-09-22 00:12:00,63.6,62.4,29.72,NNW,345,2.0,2.0,96,0.02,RA,,0.00,WeatherDisplay:10.37,2013-09-22 04:12:00,
2013-09-22 00:17:00,63.7,62.5,29.72,NNE,29,3.5,3.5,96,0.01,CLR,,0.00,WeatherDisplay:10.37,2013-09-22 04:17:00,
2013-09-22 00:22:00,63.7,62.5,29.72,NNE,32,0.0,0.0,96,0.00,CLR,,0.00,WeatherDisplay:10.37,2013-09-22 04:22:00,
2013-09-22 00:27:00,63.7,62.5,29.72,NNE,16,6.0,6.0,96,0.00,CLR,,0.00,WeatherDisplay:10.37,2013-09-22 04:27:00,
2013-09-22 00:32:00,63.7,62.5,29.72,North,360,3.5,3.5,96,0.00,CLR,,0.00,WeatherDisplay:10.37,2013-09-22 04:32:00,
2013-09-22 00:37:00,63.7,62.5,29.72,NNE,21,1.2,0.0,96,0.00,CLR,,0.00,WeatherDisplay:10.37,2013-09-22 04:37:00,
2013-09-22 00:42:00,63.7,62.5,29.72,North,350,1.2,1.2,96,0.00,CLR,,0.00,WeatherDisplay:10.37,2013-09-22 04:42:00,
2013-09-22 00:47:00,63.7,62.5,29.72,North,355,3.5,3.5,96,0.00,CLR,,0.00,WeatherDisplay:10.37,2013-09-22 04:47:00,
2013-09-22 00:52:00,63.7,62.5,29.72,North,355,5.8,5.8,96,0.00,CLR,,0.00,WeatherDisplay:10.37,2013-09-22 04:52:00,
2013-09-22 00:57:00,63.7,62.5,29.72,North,350,3.5,3.5,96,0.00,CLR,,0.00,WeatherDisplay:10.37,2013-09-22 04:57:00,
2013-09-22 01:02:00,63.6,62.4,29.72,NNE,28,3.5,3.5,96,0.00,CLR,,0.00,WeatherDisplay:10.37,2013-09-22 05:02:00,
2013-09-22 01:07:00,63.6,62.4,29.72,NE,34,0.0,0.0,96,0.00,CLR,,0.00,WeatherDisplay:10.37,2013-09-22 05:07:00,
2013-09-22 01:12:00,63.5,62.3,29.72,NE,42,0.0,0.0,96,0.00,CLR,,0.00,WeatherDisplay:10.37,2013-09-22 05:12:00,
2013-09-22 01:17:00,63.4,62.2,29.72,NNE,23,1.2,0.0,96,0.00,CLR,,0.00,WeatherDisplay:10.37,2013-09-22 05:17:00,
2013-09-22 01:22:00,63.4,62.2,29.72,NE,36,0.0,0.0,96,0.00,CLR,,0.00,WeatherDisplay:10.37,2013-09-22 05:22:00,
2013-09-22 01:27:00,63.3,62.1,29.72,NE,36,0.0,0.0,96,0.00,CLR,,0.00,WeatherDisplay:10.37,2013-09-22 05:27:00,
2013-09-22 01:32:00,63.2,62.0,29.72,NE,36,0.0,0.0,96,0.00,CLR,,0.00,WeatherDisplay:10.37,2013-09-22 05:32:00,
2013-09-22 01:37:00,63.1,61.9,29.72,NNE,30,0.0,0.0,96,0.00,CLR,,0.00,WeatherDisplay:10.37,2013-09-22 05:37:00,
2013-09-22 01:42:00,63.0,61.8,29.72,NNE,30,0.0,0.0,96,0.00,CLR,,0.00,WeatherDisplay:10.37,2013-09-22 05:42:00,
2013-09-22 01:47:00,62.9,61.7,29.72,NNE,30,0.0,0.0,96,0.00,CLR,,0.00,WeatherDisplay:10.37,2013-09-22 05:47:00,
2013-09-22 01:52:00,62.9,61.7,29.72,NNE,30,0.0,0.0,96,0.00,CLR,,0.00,WeatherDisplay:10.37,2013-09-22 05:52:00,
2013-09-22 01:57:00,62.7,61.5,29.73,NNE,29,0.0,0.0,96,0.00,CLR,,0.00,WeatherDisplay:10.37,2013-09-22 05:57:00,
2013-09-22 02:02:00,62.7,61.5,29.73,NNE,28,0.0,0.0,96,0.00,CLR,,0.00,WeatherDisplay:10.37,2013-09-22 06:02:00,
2013-09-22 02:07:00,62.6,61.4,29.73,NNE,29,0.0,0.0,96,0.01,RA,,0.01,WeatherDisplay:10.37,2013-09-22 06:07:00,
2013-09-22 02:12:00,62.6,61.4,29.73,NNE,30,0.0,0.0,96,0.01,RA,,0.01,WeatherDisplay:10.37,2013-09-22 06:12:00,
2013-09-22 02:17:00,62.5,61.3,29.73,NNE,30,0.0,0.0,96,0.01,,,0.01,WeatherDisplay:10.37,2013-09-22 06:17:00,
2013-09-22 02:22:00,62.4,61.2,29.73,NNE,30,0.0,0.0,96,0.01,CLR,,0.01,WeatherDisplay:10.37,2013-09-22 06:22:00,
2013-09-22 02:27:00,62.3,61.1,29.73,NNE,30,0.0,0.0,96,0.01,CLR,,0.01,WeatherDisplay:10.37,2013-09-22 06:27:00,
2013-09-22 02:32:00,62.2,61.0,29.73,NNE,30,0.0,0.0,96,0.01,CLR,,0.01,WeatherDisplay:10.37,2013-09-22 06:32:00,
2013-09-22 02:37:00,62.1,60.9,29.74,NNE,30,0.0,0.0,96,0.01,CLR,,0.01,WeatherDisplay:10.37,2013-09-22 06:37:00,
2013-09-22 02:42:00,62.0,60.8,29.73,NNE,29,0.0,0.0,96,0.01,CLR,,0.01,WeatherDisplay:10.37,2013-09-22 06:42:00,
2013-09-22 02:47:00,61.9,60.7,29.73,NNE,30,0.0,0.0,96,0.01,CLR,,0.01,WeatherDisplay:10.37,2013-09-22 06:47:00,
2013-09-22 02:52:00,61.8,60.6,29.73,NNE,29,0.0,0.0,96,0.01,CLR,,0.01,WeatherDisplay:10.37,2013-09-22 06:52:00,
2013-09-22 02:57:00,61.6,60.4,29.73,NNE,29,0.0,0.0,96,0.01,CLR,,0.01,WeatherDisplay:10.37,2013-09-22 06:57:00,
2013-09-22 03:02:00,61.5,60.1,29.73,NNE,29,0.0,0.0,95,0.01,CLR,,0.01,WeatherDisplay:10.37,2013-09-22 07:02:00,
2013-09-22 03:07:00,61.4,60.0,29.74,NNE,30,0.0,0.0,95,0.00,CLR,,0.01,WeatherDisplay:10.37,2013-09-22 07:07:00,
2013-09-22 03:12:00,61.3,59.9,29.74,NNE,30,0.0,0.0,95,0.00,CLR,,0.01,WeatherDisplay:10.37,2013-09-22 07:12:00,
2013-09-22 03:17:00,61.2,60.1,29.74,NNE,29,0.0,0.0,96,0.00,CLR,,0.01,WeatherDisplay:10.37,2013-09-22 07:17:00,
2013-09-22 03:22:00,61.0,59.9,29.74,NNE,29,0.0,0.0,96,0.00,CLR,,0.01,WeatherDisplay:10.37,2013-09-22 07:22:00,
2013-09-22 03:27:00,60.9,59.5,29.74,NNE,29,0.0,0.0,95,0.00,CLR,,0.01,WeatherDisplay:10.37,2013-09-22 07:27:00,
2013-09-22 03:32:00,60.7,59.3,29.74,NNE,29,0.0,0.0,95,0.00,CLR,,0.01,WeatherDisplay:10.37,2013-09-22 07:32:00,
2013-09-22 03:37:00,60.6,59.2,29.74,NNE,29,0.0,0.0,95,0.00,CLR,,0.01,WeatherDisplay:10.37,2013-09-22 07:37:00,
2013-09-22 03:42:00,60.5,59.1,29.74,NNE,30,0.0,0.0,95,0.00,CLR,,0.01,WeatherDisplay:10.37,2013-09-22 07:42:00,
2013-09-22 03:47:00,60.4,59.0,29.74,NNE,30,0.0,0.0,95,0.00,CLR,,0.01,WeatherDisplay:10.37,2013-09-22 07:47:00,
2013-09-22 03:52:00,60.3,58.9,29.74,NNE,29,0.0,0.0,95,0.00,CLR,,0.01,WeatherDisplay:10.37,2013-09-22 07:52:00,
2013-09-22 03:57:00,60.3,58.9,29.74,NNE,29,0.0,0.0,95,0.00,CLR,,0.01,WeatherDisplay:10.37,2013-09-22 07:57:00,
2013-09-22 04:02:00,60.3,58.9,29.74,NNE,29,0.0,0.0,95,0.00,CLR,,0.01,WeatherDisplay:10.37,2013-09-22 08:02:00,
2013-09-22 04:07:00,60.3,59.2,29.74,NNE,29,0.0,0.0,96,0.00,CLR,,0.01,WeatherDisplay:10.37,2013-09-22 08:07:00,
2013-09-22 04:12:00,60.2,59.1,29.74,NNE,29,0.0,0.0,96,0.00,CLR,,0.01,WeatherDisplay:10.37,2013-09-22 08:12:00,
2013-09-22 04:17:00,60.2,59.1,29.74,NNE,30,0.0,0.0,96,0.00,CLR,,0.01,WeatherDisplay:10.37,2013-09-22 08:17:00,
2013-09-22 04:22:00,60.1,59.0,29.74,NNE,29,0.0,0.0,96,0.00,CLR,,0.01,WeatherDisplay:10.37,2013-09-22 08:22:00,
2013-09-22 04:27:00,60.0,58.9,29.74,NNE,30,0.0,0.0,96,0.00,CLR,,0.01,WeatherDisplay:10.37,2013-09-22 08:27:00,
2013-09-22 04:32:00,59.9,58.8,29.74,NNE,30,0.0,0.0,96,0.00,CLR,,0.01,WeatherDisplay:10.37,2013-09-22 08:32:00,
2013-09-22 04:37:00,59.8,58.7,29.75,NNE,30,0.0,0.0,96,0.00,CLR,,0.01,WeatherDisplay:10.37,2013-09-22 08:37:00,
2013-09-22 04:42:00,59.7,58.6,29.75,NNE,29,0.0,0.0,96,0.00,CLR,,0.01,WeatherDisplay:10.37,2013-09-22 08:42:00,
2013-09-22 04:47:00,59.6,58.5,29.75,NNE,30,0.0,0.0,96,0.00,CLR,,0.01,WeatherDisplay:10.37,2013-09-22 08:47:00,
2013-09-22 04:52:00,59.5,58.4,29.75,NNE,30,0.0,0.0,96,0.00,CLR,,0.01,WeatherDisplay:10.37,2013-09-22 08:52:00,
2013-09-22 04:57:00,59.5,58.4,29.75,NNE,30,0.0,0.0,96,0.00,CLR,,0.01,WeatherDisplay:10.37,2013-09-22 08:57:00,
2013-09-22 05:02:00,59.3,58.2,29.75,NNE,30,0.0,0.0,96,0.00,CLR,,0.01,WeatherDisplay:10.37,2013-09-22 09:02:00,
2013-09-22 05:07:00,59.3,58.2,29.75,NNE,29,0.0,0.0,96,0.00,CLR,,0.01,WeatherDisplay:10.37,2013-09-22 09:07:00,
2013-09-22 05:12:00,59.0,57.9,29.75,NNE,30,0.0,0.0,96,0.00,CLR,,0.01,WeatherDisplay:10.37,2013-09-22 09:12:00,
2013-09-22 05:17:00,59.0,57.9,29.75,NNE,29,0.0,0.0,96,0.00,CLR,,0.01,WeatherDisplay:10.37,2013-09-22 09:17:00,
2013-09-22 05:22:00,59.0,57.9,29.76,NNE,30,0.0,0.0,96,0.00,CLR,,0.01,WeatherDisplay:10.37,2013-09-22 09:22:00,
2013-09-22 05:27:00,59.0,57.6,29.76,NNE,30,0.0,0.0,95,0.00,CLR,,0.01,WeatherDisplay:10.37,2013-09-22 09:27:00,
2013-09-22 05:32:00,58.8,57.4,29.76,NNE,30,0.0,0.0,95,0.00,CLR,,0.01,WeatherDisplay:10.37,2013-09-22 09:32:00,
2013-09-22 05:37:00,58.6,57.5,29.76,NNE,30,0.0,0.0,96,0.00,CLR,,0.01,WeatherDisplay:10.37,2013-09-22 09:37:00,
2013-09-22 05:42:00,58.5,57.4,29.76,NNE,29,0.0,0.0,96,0.00,CLR,,0.01,WeatherDisplay:10.37,2013-09-22 09:42:00,
2013-09-22 05:47:00,58.3,56.9,29.77,NNE,29,0.0,0.0,95,0.00,CLR,,0.01,WeatherDisplay:10.37,2013-09-22 09:47:00,
2013-09-22 05:52:00,58.1,56.7,29.77,NNE,29,0.0,0.0,95,0.00,CLR,,0.01,WeatherDisplay:10.37,2013-09-22 09:52:00,
2013-09-22 05:57:00,58.0,56.9,29.77,NNE,30,0.0,0.0,96,0.00,CLR,,0.01,WeatherDisplay:10.37,2013-09-22 09:57:00,
2013-09-22 06:02:00,57.9,56.8,29.77,NNE,29,0.0,0.0,96,0.00,CLR,,0.01,WeatherDisplay:10.37,2013-09-22 10:02:00,
2013-09-22 06:07:00,57.7,56.6,29.77,NNE,30,0.0,0.0,96,0.00,CLR,,0.01,WeatherDisplay:10.37,2013-09-22 10:07:00,
2013-09-22 06:12:00,57.6,56.2,29.78,NNE,29,0.0,0.0,95,0.00,CLR,,0.01,WeatherDisplay:10.37,2013-09-22 10:12:00,
2013-09-22 06:17:00,57.5,56.1,29.78,NNE,29,0.0,0.0,95,0.00,CLR,,0.01,WeatherDisplay:10.37,2013-09-22 10:17:00,
2013-09-22 06:22:00,57.5,56.1,29.78,NNE,29,0.0,0.0,95,0.00,CLR,,0.01,WeatherDisplay:10.37,2013-09-22 10:22:00,
2013-09-22 06:27:00,57.4,56.3,29.78,NNE,30,0.0,0.0,96,0.00,CLR,,0.01,WeatherDisplay:10.37,2013-09-22 10:27:00,
2013-09-22 06:32:00,57.3,56.2,29.78,NNE,29,0.0,0.0,96,0.00,CLR,,0.01,WeatherDisplay:10.37,2013-09-22 10:32:00,
2013-09-22 06:37:00,57.3,56.2,29.78,NNE,29,0.0,0.0,96,0.00,CLR,,0.01,WeatherDisplay:10.37,2013-09-22 10:37:00,
2013-09-22 06:42:00,57.3,56.2,29.78,NNE,29,0.0,0.0,96,0.00,CLR,,0.01,WeatherDisplay:10.37,2013-09-22 10:42:00,
2013-09-22 06:47:00,57.2,56.1,29.79,NNE,30,0.0,0.0,96,0.00,CLR,,0.01,WeatherDisplay:10.37,2013-09-22 10:47:00,
2013-09-22 06:52:00,57.1,56.0,29.78,NNE,29,0.0,0.0,96,0.00,CLR,,0.01,WeatherDisplay:10.37,2013-09-22 10:52:00,
2013-09-22 07:04:00,56.9,55.8,29.79,NNE,30,0.0,0.0,96,0.00,CLR,,0.01,WeatherDisplay:10.37,2013-09-22 11:04:00,
2013-09-22 07:09:00,56.8,55.7,29.79,NNE,29,0.0,0.0,96,0.00,CLR,,0.01,WeatherDisplay:10.37,2013-09-22 11:09:00,
2013-09-22 07:14:00,56.6,55.5,29.80,NNE,30,0.0,0.0,96,0.00,CLR,,0.01,WeatherDisplay:10.37,2013-09-22 11:14:00,
2013-09-22 07:19:00,56.5,55.4,29.80,NNE,29,0.0,0.0,96,0.00,CLR,,0.01,WeatherDisplay:10.37,2013-09-22 11:19:00,
2013-09-22 07:24:00,56.4,55.0,29.80,NNE,30,0.0,0.0,95,0.00,CLR,,0.01,WeatherDisplay:10.37,2013-09-22 11:24:00,
2013-09-22 07:29:00,56.4,55.0,29.80,NNE,29,0.0,0.0,95,0.00,CLR,,0.01,WeatherDisplay:10.37,2013-09-22 11:29:00,
2013-09-22 07:34:00,56.2,54.8,29.80,NNE,29,0.0,0.0,95,0.00,CLR,,0.01,WeatherDisplay:10.37,2013-09-22 11:34:00,
2013-09-22 07:39:00,56.1,55.0,29.80,NNE,30,0.0,0.0,96,0.00,CLR,,0.01,WeatherDisplay:10.37,2013-09-22 11:39:00,
2013-09-22 07:44:00,56.0,54.9,29.81,NNE,30,0.0,0.0,96,0.00,CLR,,0.01,WeatherDisplay:10.37,2013-09-22 11:44:00,
2013-09-22 07:49:00,56.0,54.9,29.81,NNE,30,0.0,0.0,96,0.00,CLR,,0.01,WeatherDisplay:10.37,2013-09-22 11:49:00,
2013-09-22 07:54:00,56.0,54.9,29.81,NNE,29,0.0,0.0,96,0.00,CLR,,0.01,WeatherDisplay:10.37,2013-09-22 11:54:00,
2013-09-22 07:59:00,56.0,54.9,29.81,NNE,29,0.0,0.0,96,0.00,CLR,,0.01,WeatherDisplay:10.37,2013-09-22 11:59:00,
2013-09-22 08:04:00,56.0,54.9,29.81,NNE,29,0.0,0.0,96,0.00,CLR,,0.01,WeatherDisplay:10.37,2013-09-22 12:04:00,
2013-09-22 08:09:00,55.9,54.8,29.82,NNE,29,0.0,0.0,96,0.00,CLR,,0.01,WeatherDisplay:10.37,2013-09-22 12:09:00,
2013-09-22 08:14:00,56.0,54.9,29.82,NNE,29,0.0,0.0,96,0.00,CLR,,0.01,WeatherDisplay:10.37,2013-09-22 12:14:00,
2013-09-22 08:19:00,56.2,55.1,29.82,NNE,29,0.0,0.0,96,0.00,CLR,,0.01,WeatherDisplay:10.37,2013-09-22 12:19:00,
2013-09-22 08:24:00,56.7,55.6,29.82,NNE,30,0.0,0.0,96,0.00,CLR,,0.01,WeatherDisplay:10.37,2013-09-22 12:24:00,
2013-09-22 08:30:00,57.4,56.3,29.82,NNE,29,0.0,0.0,96,0.00,CLR,,0.01,WeatherDisplay:10.37,2013-09-22 12:30:00,
2013-09-22 08:35:00,57.7,56.6,29.82,NNE,30,0.0,0.0,96,0.00,CLR,,0.01,WeatherDisplay:10.37,2013-09-22 12:35:00,
2013-09-22 08:40:00,58.0,56.9,29.82,NNE,30,0.0,0.0,96,0.00,CLR,,0.01,WeatherDisplay:10.37,2013-09-22 12:40:00,
2013-09-22 08:45:00,58.4,57.3,29.83,NNE,30,0.0,0.0,96,0.00,CLR,,0.01,WeatherDisplay:10.37,2013-09-22 12:45:00,
2013-09-22 08:50:00,58.6,57.5,29.83,North,5,0.0,0.0,96,0.00,CLR,,0.01,WeatherDisplay:10.37,2013-09-22 12:50:00,
2013-09-22 08:55:00,58.9,57.8,29.83,North,355,0.0,0.0,96,0.00,CLR,,0.01,WeatherDisplay:10.37,2013-09-22 12:55:00,
2013-09-22 09:00:00,59.0,57.9,29.83,North,5,4.6,4.6,96,0.00,CLR,,0.01,WeatherDisplay:10.37,2013-09-22 13:00:00,
2013-09-22 09:06:00,59.5,58.4,29.83,North,10,2.3,2.3,96,0.00,CLR,,0.01,WeatherDisplay:10.37,2013-09-22 13:06:00,
2013-09-22 09:11:00,60.1,58.7,29.83,NNE,29,0.0,0.0,95,0.00,CLR,,0.01,WeatherDisplay:10.37,2013-09-22 13:11:00,
2013-09-22 09:16:00,60.7,59.0,29.84,NNE,29,0.0,0.0,94,0.00,CLR,,0.01,WeatherDisplay:10.37,2013-09-22 13:16:00,
2013-09-22 09:21:00,61.1,58.8,29.84,NE,38,3.5,3.5,92,0.00,CLR,,0.01,WeatherDisplay:10.37,2013-09-22 13:21:00,
2013-09-22 09:26:00,61.5,58.5,29.84,NE,53,0.0,0.0,90,0.00,CLR,,0.01,WeatherDisplay:10.37,2013-09-22 13:26:00,
2013-09-22 09:31:00,61.9,58.0,29.84,NE,40,5.8,5.8,87,0.00,CLR,,0.01,WeatherDisplay:10.37,2013-09-22 13:31:00,
2013-09-22 09:36:00,62.3,58.1,29.85,NE,56,4.6,4.6,86,0.00,CLR,,0.01,WeatherDisplay:10.37,2013-09-22 13:36:00,
2013-09-22 09:41:00,62.6,58.4,29.85,NNE,13,0.0,0.0,86,0.00,CLR,,0.01,WeatherDisplay:10.37,2013-09-22 13:41:00,
2013-09-22 09:46:00,63.1,58.5,29.85,NE,50,3.5,3.5,85,0.00,CLR,,0.01,WeatherDisplay:10.37,2013-09-22 13:46:00,
2013-09-22 09:51:00,63.6,59.3,29.85,North,355,1.2,0.0,86,0.00,CLR,,0.01,WeatherDisplay:10.37,2013-09-22 13:51:00,
2013-09-22 09:56:00,64.1,58.8,29.85,North,351,3.5,3.5,83,0.00,CLR,,0.01,WeatherDisplay:10.37,2013-09-22 13:56:00,
2013-09-22 10:01:00,64.5,58.2,29.85,NE,37,6.9,6.9,80,0.00,CLR,,0.01,WeatherDisplay:10.37,2013-09-22 14:01:00,
2013-09-22 10:06:00,64.8,58.1,29.85,NE,53,6.9,6.9,79,0.00,CLR,,0.01,WeatherDisplay:10.37,2013-09-22 14:06:00,
2013-09-22 10:11:00,65.0,58.0,29.85,North,355,9.2,9.2,78,0.00,CLR,,0.01,WeatherDisplay:10.37,2013-09-22 14:11:00,
2013-09-22 10:16:00,65.3,58.6,29.85,NNE,23,2.3,2.3,79,0.00,CLR,,0.01,WeatherDisplay:10.37,2013-09-22 14:16:00,
2013-09-22 10:21:00,65.7,59.0,29.85,NNW,348,3.5,3.5,79,0.00,CLR,,0.01,WeatherDisplay:10.37,2013-09-22 14:21:00,
2013-09-22 10:26:00,66.1,58.3,29.85,North,360,6.9,6.9,76,0.00,CLR,,0.01,WeatherDisplay:10.37,2013-09-22 14:26:00,
2013-09-22 10:31:00,66.3,57.8,29.85,NNE,14,4.6,4.6,74,0.00,CLR,,0.01,WeatherDisplay:10.37,2013-09-22 14:31:00,
2013-09-22 10:36:00,66.5,58.0,29.85,North,5,6.9,6.9,74,0.00,CLR,,0.01,WeatherDisplay:10.37,2013-09-22 14:36:00,
2013-09-22 10:41:00,66.7,58.9,29.85,North,355,6.0,6.0,76,0.00,CLR,,0.01,WeatherDisplay:10.37,2013-09-22 14:41:00,
2013-09-22 10:46:00,67.0,58.4,29.85,North,5,5.8,5.8,74,0.00,CLR,,0.01,WeatherDisplay:10.37,2013-09-22 14:46:00,
2013-09-22 10:51:00,67.3,58.3,29.85,NNW,344,4.6,4.6,73,0.00,CLR,,0.01,WeatherDisplay:10.37,2013-09-22 14:51:00,
2013-09-22 10:56:00,67.7,58.7,29.85,North,9,10.4,10.4,73,0.00,CLR,,0.01,WeatherDisplay:10.37,2013-09-22 14:56:00,
2013-09-22 11:01:00,68.0,58.2,29.85,North,5,6.9,6.9,71,0.00,CLR,,0.01,WeatherDisplay:10.37,2013-09-22 15:01:00,
2013-09-22 11:06:00,68.0,57.8,29.85,NE,37,8.1,8.1,70,0.00,CLR,,0.01,WeatherDisplay:10.37,2013-09-22 15:06:00,
2013-09-22 11:11:00,68.1,58.3,29.85,NE,36,3.5,3.5,71,0.00,CLR,,0.01,WeatherDisplay:10.37,2013-09-22 15:11:00,
2013-09-22 11:16:00,68.4,57.4,29.85,ENE,67,10.4,10.4,68,0.00,CLR,,0.01,WeatherDisplay:10.37,2013-09-22 15:16:00,
2013-09-22 11:21:00,68.6,57.6,29.85,NNE,28,11.5,11.5,68,0.00,CLR,,0.01,WeatherDisplay:10.37,2013-09-22 15:21:00,
2013-09-22 11:26:00,68.7,57.3,29.85,NE,35,8.1,8.1,67,0.00,CLR,,0.01,WeatherDisplay:10.37,2013-09-22 15:26:00,
2013-09-22 11:31:00,69.1,58.1,29.85,ENE,76,9.2,9.2,68,0.00,CLR,,0.01,WeatherDisplay:10.37,2013-09-22 15:31:00,
2013-09-22 11:36:00,69.4,58.0,29.85,North,355,5.8,5.8,67,0.00,CLR,,0.01,WeatherDisplay:10.37,2013-09-22 15:36:00,
2013-09-22 11:41:00,69.7,57.8,29.85,NE,39,13.0,13.0,66,0.00,CLR,,0.01,WeatherDisplay:10.37,2013-09-22 15:41:00,
2013-09-22 11:46:00,69.8,57.5,29.85,NE,46,10.4,10.4,65,0.00,CLR,,0.01,WeatherDisplay:10.37,2013-09-22 15:46:00,
2013-09-22 11:51:00,69.9,57.6,29.85,North,355,11.5,11.5,65,0.00,CLR,,0.01,WeatherDisplay:10.37,2013-09-22 15:51:00,
2013-09-22 11:56:00,70.1,57.8,29.85,NNE,24,9.0,9.0,65,0.00,CLR,,0.01,WeatherDisplay:10.37,2013-09-22 15:56:00,
2013-09-22 12:01:00,70.4,57.6,29.85,NNE,32,7.0,7.0,64,0.00,CLR,,0.01,WeatherDisplay:10.37,2013-09-22 16:01:00,
2013-09-22 12:06:00,70.5,57.3,29.85,NE,49,8.1,8.1,63,0.00,CLR,,0.01,WeatherDisplay:10.37,2013-09-22 16:06:00,
2013-09-22 12:11:00,70.5,57.7,29.85,NNE,26,11.5,11.5,64,0.00,CLR,,0.01,WeatherDisplay:10.37,2013-09-22 16:11:00,
2013-09-22 12:16:00,70.7,57.0,29.85,NNE,22,6.9,6.9,62,0.00,CLR,,0.01,WeatherDisplay:10.37,2013-09-22 16:16:00,
2013-09-22 12:21:00,70.9,57.7,29.85,North,355,6.9,6.9,63,0.00,CLR,,0.01,WeatherDisplay:10.37,2013-09-22 16:21:00,
2013-09-22 12:26:00,71.1,57.9,29.85,NE,38,9.2,9.2,63,0.00,CLR,,0.01,WeatherDisplay:10.37,2013-09-22 16:26:00,
2013-09-22 12:31:00,71.2,57.5,29.85,NE,34,5.8,5.8,62,0.00,CLR,,0.01,WeatherDisplay:10.37,2013-09-22 16:31:00,
2013-09-22 12:36:00,71.5,58.2,29.85,NNE,22,6.9,6.9,63,0.00,CLR,,0.01,WeatherDisplay:10.37,2013-09-22 16:36:00,
2013-09-22 12:41:00,72.0,57.8,29.85,NNE,32,6.9,6.9,61,0.00,CLR,,0.01,WeatherDisplay:10.37,2013-09-22 16:41:00,
2013-09-22 12:46:00,72.0,57.4,29.85,ENE,62,8.1,8.1,60,0.00,CLR,,0.01,WeatherDisplay:10.37,2013-09-22 16:46:00,
2013-09-22 12:51:00,72.0,57.4,29.85,NE,44,10.4,10.4,60,0.00,CLR,,0.01,WeatherDisplay:10.37,2013-09-22 16:51:00,
2013-09-22 12:56:00,71.8,57.6,29.84,NE,42,10.4,10.4,61,0.00,CLR,,0.01,WeatherDisplay:10.37,2013-09-22 16:56:00,
2013-09-22 13:01:00,71.5,57.3,29.84,ENE,67,6.0,6.0,61,0.00,CLR,,0.01,WeatherDisplay:10.37,2013-09-22 17:01:00,
2013-09-22 13:06:00,71.5,58.2,29.85,NE,55,5.8,5.8,63,0.00,CLR,,0.01,WeatherDisplay:10.37,2013-09-22 17:06:00,
2013-09-22 13:11:00,71.6,58.3,29.84,NE,49,5.8,5.8,63,0.00,CLR,,0.01,WeatherDisplay:10.37,2013-09-22 17:11:00,
2013-09-22 13:16:00,72.0,56.9,29.84,NNE,12,12.7,12.7,59,0.00,CLR,,0.01,WeatherDisplay:10.37,2013-09-22 17:16:00,
2013-09-22 13:21:00,72.3,58.1,29.84,NE,34,5.0,5.0,61,0.00,CLR,,0.01,WeatherDisplay:10.37,2013-09-22 17:21:00,
2013-09-22 13:26:00,72.5,57.8,29.84,NNE,13,6.9,6.9,60,0.00,CLR,,0.01,WeatherDisplay:10.37,2013-09-22 17:26:00,
2013-09-22 13:31:00,72.6,57.4,29.83,NE,51,10.4,10.4,59,0.00,CLR,,0.01,WeatherDisplay:10.37,2013-09-22 17:31:00,
2013-09-22 13:36:00,72.5,57.8,29.84,NE,44,9.2,9.2,60,0.00,CLR,,0.01,WeatherDisplay:10.37,2013-09-22 17:36:00,
2013-09-22 13:41:00,72.6,58.8,29.83,ENE,67,6.9,6.9,62,0.00,CLR,,0.01,WeatherDisplay:10.37,2013-09-22 17:41:00,
2013-09-22 13:46:00,72.6,57.9,29.83,NE,55,5.8,5.8,60,0.00,CLR,,0.01,WeatherDisplay:10.37,2013-09-22 17:46:00,
2013-09-22 13:51:00,72.6,57.9,29.83,ENE,69,3.0,3.0,60,0.00,CLR,,0.01,WeatherDisplay:10.37,2013-09-22 17:51:00,
2013-09-22 13:56:00,72.9,58.2,29.83,NE,44,10.0,10.0,60,0.00,CLR,,0.01,WeatherDisplay:10.37,2013-09-22 17:56:00,
2013-09-22 14:01:00,73.1,57.4,29.83,NNE,26,6.9,6.9,58,0.00,CLR,,0.01,WeatherDisplay:10.37,2013-09-22 18:01:00,
2013-09-22 14:06:00,73.4,58.7,29.83,North,350,7.0,7.0,60,0.00,CLR,,0.01,WeatherDisplay:10.37,2013-09-22 18:06:00,
2013-09-22 14:11:00,73.8,58.6,29.82,NNE,23,9.2,9.2,59,0.00,CLR,,0.01,WeatherDisplay:10.37,2013-09-22 18:11:00,
2013-09-22 14:16:00,74.0,58.3,29.82,North,355,10.0,10.0,58,0.00,CLR,,0.01,WeatherDisplay:10.37,2013-09-22 18:16:00,
2013-09-22 14:21:00,74.1,57.9,29.82,NE,51,9.2,9.2,57,0.00,CLR,,0.01,WeatherDisplay:10.37,2013-09-22 18:21:00,
2013-09-22 14:26:00,74.2,58.9,29.82,NE,52,5.8,5.8,59,0.00,CLR,,0.01,WeatherDisplay:10.37,2013-09-22 18:26:00,
2013-09-22 14:31:00,74.5,58.3,29.82,NNE,31,0.0,0.0,57,0.00,CLR,,0.01,WeatherDisplay:10.37,2013-09-22 18:31:00,
2013-09-22 14:36:00,74.7,59.9,29.82,North,360,0.0,0.0,60,0.00,CLR,,0.01,WeatherDisplay:10.37,2013-09-22 18:36:00,
2013-09-22 14:41:00,75.3,60.0,29.81,North,360,1.0,0.0,59,0.00,CLR,,0.01,WeatherDisplay:10.37,2013-09-22 18:41:00,
2013-09-22 14:46:00,75.3,58.5,29.81,NE,55,0.0,0.0,56,0.00,CLR,,0.01,WeatherDisplay:10.37,2013-09-22 18:46:00,
2013-09-22 14:51:00,74.9,60.1,29.81,North,5,0.0,0.0,60,0.00,CLR,,0.01,WeatherDisplay:10.37,2013-09-22 18:51:00,
2013-09-22 14:56:00,74.5,58.8,29.81,NE,44,5.8,0.0,58,0.00,CLR,,0.01,WeatherDisplay:10.37,2013-09-22 18:56:00,
2013-09-22 15:01:00,74.4,58.2,29.81,ENE,65,2.3,2.3,57,0.00,CLR,,0.01,WeatherDisplay:10.37,2013-09-22 19:01:00,
2013-09-22 15:06:00,74.3,58.6,29.81,ENE,65,5.0,5.0,58,0.00,CLR,,0.01,WeatherDisplay:10.37,2013-09-22 19:06:00,
2013-09-22 15:11:00,74.4,58.7,29.81,ENE,74,0.0,0.0,58,0.00,CLR,,0.01,WeatherDisplay:10.37,2013-09-22 19:11:00,
2013-09-22 15:16:00,74.7,59.9,29.81,NNW,341,1.0,0.0,60,0.00,CLR,,0.01,WeatherDisplay:10.37,2013-09-22 19:16:00,
2013-09-22 15:21:00,75.3,60.0,29.81,NE,40,3.5,3.5,59,0.00,CLR,,0.01,WeatherDisplay:10.37,2013-09-22 19:21:00,
2013-09-22 15:26:00,75.3,58.5,29.81,ENE,65,0.0,0.0,56,0.00,CLR,,0.01,WeatherDisplay:10.37,2013-09-22 19:26:00,
2013-09-22 15:31:00,75.2,60.4,29.81,ESE,111,0.0,0.0,60,0.00,CLR,,0.01,WeatherDisplay:10.37,2013-09-22 19:31:00,
2013-09-22 15:36:00,75.4,59.6,29.81,North,351,6.9,6.9,58,0.00,CLR,,0.01,WeatherDisplay:10.37,2013-09-22 19:36:00,
2013-09-22 15:41:00,75.6,59.3,29.81,NNE,16,0.0,0.0,57,0.00,CLR,,0.01,WeatherDisplay:10.37,2013-09-22 19:41:00,
2013-09-22 15:46:00,75.8,60.4,29.81,ENE,78,0.0,0.0,59,0.00,CLR,,0.01,WeatherDisplay:10.37,2013-09-22 19:46:00,
2013-09-22 15:52:00,76.0,60.2,29.81,NNE,22,3.5,0.0,58,0.00,CLR,,0.01,WeatherDisplay:10.37,2013-09-22 19:52:00,
2013-09-22 15:57:00,75.8,58.5,29.81,NNE,26,3.5,3.5,55,0.00,CLR,,0.01,WeatherDisplay:10.37,2013-09-22 19:57:00,
2013-09-22 16:02:00,75.4,59.1,29.81,NE,38,0.0,0.0,57,0.00,CLR,,0.01,WeatherDisplay:10.37,2013-09-22 20:02:00,
2013-09-22 16:07:00,75.2,58.9,29.81,ENE,71,0.0,0.0,57,0.00,CLR,,0.01,WeatherDisplay:10.37,2013-09-22 20:07:00,
2013-09-22 16:12:00,75.1,58.8,29.81,ENE,69,3.0,3.0,57,0.00,CLR,,0.01,WeatherDisplay:10.37,2013-09-22 20:12:00,
2013-09-22 16:17:00,75.1,58.8,29.81,NE,41,5.8,5.8,57,0.00,CLR,,0.01,WeatherDisplay:10.37,2013-09-22 20:17:00,
2013-09-22 16:22:00,74.6,58.4,29.81,NNE,26,0.0,0.0,57,0.00,CLR,,0.01,WeatherDisplay:10.37,2013-09-22 20:22:00,
2013-09-22 16:27:00,74.6,58.4,29.81,NNE,15,1.2,1.2,57,0.00,CLR,,0.01,WeatherDisplay:10.37,2013-09-22 20:27:00,
2013-09-22 16:32:00,74.9,57.6,29.81,ENE,67,2.3,2.3,55,0.00,CLR,,0.01,WeatherDisplay:10.37,2013-09-22 20:32:00,
2013-09-22 16:37:00,74.9,58.6,29.81,NNE,13,3.5,3.5,57,0.00,CLR,,0.01,WeatherDisplay:10.37,2013-09-22 20:37:00,
2013-09-22 16:42:00,75.0,57.7,29.81,East,90,3.5,0.0,55,0.00,CLR,,0.01,WeatherDisplay:10.37,2013-09-22 20:42:00,
2013-09-22 16:47:00,75.0,58.2,29.81,North,5,3.5,3.5,56,0.00,CLR,,0.01,WeatherDisplay:10.37,2013-09-22 20:47:00,
2013-09-22 16:52:00,75.1,58.3,29.81,NNE,24,5.8,5.8,56,0.00,CLR,,0.01,WeatherDisplay:10.37,2013-09-22 20:52:00,
2013-09-22 16:57:00,75.3,58.5,29.81,NE,38,6.0,6.0,56,0.00,CLR,,0.01,WeatherDisplay:10.37,2013-09-22 20:57:00,
2013-09-22 17:02:00,75.1,57.8,29.81,NE,36,3.5,3.5,55,0.00,CLR,,0.01,WeatherDisplay:10.37,2013-09-22 21:02:00,
2013-09-22 17:07:00,74.9,57.1,29.81,NNE,28,1.2,0.0,54,0.00,CLR,,0.01,WeatherDisplay:10.37,2013-09-22 21:07:00,
2013-09-22 17:12:00,75.0,59.2,29.81,NNE,24,0.0,0.0,58,0.00,CLR,,0.01,WeatherDisplay:10.37,2013-09-22 21:12:00,
2013-09-22 17:17:00,75.1,58.8,29.81,ENE,67,3.5,3.5,57,0.00,CLR,,0.01,WeatherDisplay:10.37,2013-09-22 21:17:00,
2013-09-22 17:22:00,75.0,58.2,29.81,East,80,0.0,0.0,56,0.00,CLR,,0.01,WeatherDisplay:10.37,2013-09-22 21:22:00,
2013-09-22 17:27:00,75.1,59.3,29.81,NE,38,4.0,4.0,58,0.00,CLR,,0.01,WeatherDisplay:10.37,2013-09-22 21:27:00,
2013-09-22 17:32:00,75.0,58.7,29.81,ENE,57,0.0,0.0,57,0.00,CLR,,0.01,WeatherDisplay:10.37,2013-09-22 21:32:00,
2013-09-22 17:37:00,75.0,58.7,29.82,East,81,0.0,0.0,57,0.00,CLR,,0.01,WeatherDisplay:10.37,2013-09-22 21:37:00,
2013-09-22 17:42:00,75.1,59.3,29.82,NE,49,0.0,0.0,58,0.00,CLR,,0.01,WeatherDisplay:10.37,2013-09-22 21:42:00,
2013-09-22 17:48:00,75.1,58.8,29.82,NE,45,0.0,0.0,57,0.00,CLR,,0.01,WeatherDisplay:10.37,2013-09-22 21:48:00,
2013-09-22 17:53:00,74.9,57.6,29.82,NE,36,1.2,0.0,55,0.00,CLR,,0.01,WeatherDisplay:10.37,2013-09-22 21:53:00,
2013-09-22 17:58:00,74.8,58.1,29.82,NE,52,3.0,3.0,56,0.00,CLR,,0.01,WeatherDisplay:10.37,2013-09-22 21:58:00,
2013-09-22 18:03:00,74.6,58.8,29.82,ENE,74,0.0,0.0,58,0.00,CLR,,0.01,WeatherDisplay:10.37,2013-09-22 22:03:00,
2013-09-22 18:08:00,74.3,59.0,29.83,ENE,59,0.0,0.0,59,0.00,CLR,,0.01,WeatherDisplay:10.37,2013-09-22 22:08:00,
2013-09-22 18:13:00,74.2,59.9,29.83,ENE,57,0.0,0.0,61,0.00,CLR,,0.01,WeatherDisplay:10.37,2013-09-22 22:13:00,
2013-09-22 18:18:00,73.9,59.1,29.83,ENE,65,2.3,0.0,60,0.00,CLR,,0.01,WeatherDisplay:10.37,2013-09-22 22:18:00,
2013-09-22 18:23:00,73.6,58.9,29.82,ENE,62,0.0,0.0,60,0.00,CLR,,0.01,WeatherDisplay:10.37,2013-09-22 22:23:00,
2013-09-22 18:28:00,73.3,59.0,29.83,ENE,61,0.0,0.0,61,0.00,CLR,,0.01,WeatherDisplay:10.37,2013-09-22 22:28:00,
2013-09-22 18:33:00,73.2,58.9,29.83,ENE,62,0.0,0.0,61,0.00,CLR,,0.01,WeatherDisplay:10.37,2013-09-22 22:33:00,
2013-09-22 18:38:00,73.1,59.8,29.83,ENE,61,0.0,0.0,63,0.00,CLR,,0.01,WeatherDisplay:10.37,2013-09-22 22:38:00,
2013-09-22 18:43:00,73.0,60.5,29.83,ENE,62,0.0,0.0,65,0.00,CLR,,0.01,WeatherDisplay:10.37,2013-09-22 22:43:00,
2013-09-22 18:48:00,72.9,60.0,29.83,ENE,61,0.0,0.0,64,0.00,CLR,,0.01,WeatherDisplay:10.37,2013-09-22 22:48:00,
2013-09-22 18:53:00,72.9,61.3,29.83,NE,49,0.0,0.0,67,0.00,CLR,,0.01,WeatherDisplay:10.37,2013-09-22 22:53:00,
2013-09-22 18:58:00,72.6,59.7,29.83,NE,49,0.0,0.0,64,0.00,CLR,,0.01,WeatherDisplay:10.37,2013-09-22 22:58:00,
2013-09-22 19:03:00,72.4,60.8,29.83,NE,48,0.0,0.0,67,0.00,CLR,,0.01,WeatherDisplay:10.37,2013-09-22 23:03:00,
2013-09-22 19:08:00,72.0,60.4,29.83,NE,40,0.0,0.0,67,0.00,CLR,,0.01,WeatherDisplay:10.37,2013-09-22 23:08:00,
2013-09-22 19:13:00,71.4,60.3,29.83,South,190,0.0,0.0,68,0.00,CLR,,0.01,WeatherDisplay:10.37,2013-09-22 23:13:00,
2013-09-22 19:18:00,70.9,59.8,29.83,South,190,0.0,0.0,68,0.00,CLR,,0.01,WeatherDisplay:10.37,2013-09-22 23:18:00,
2013-09-22 19:23:00,70.4,59.7,29.83,South,190,0.0,0.0,69,0.00,CLR,,0.01,WeatherDisplay:10.37,2013-09-22 23:23:00,
2013-09-22 19:28:00,70.0,59.4,29.83,South,190,0.0,0.0,69,0.00,CLR,,0.01,WeatherDisplay:10.37,2013-09-22 23:28:00,
2013-09-22 19:33:00,69.5,59.3,29.83,South,190,0.0,0.0,70,0.00,CLR,,0.01,WeatherDisplay:10.37,2013-09-22 23:33:00,
2013-09-22 19:38:00,68.9,59.5,29.83,South,190,0.0,0.0,72,0.00,CLR,,0.01,WeatherDisplay:10.37,2013-09-22 23:38:00,
2013-09-22 19:43:00,68.4,59.8,29.83,South,190,0.0,0.0,74,0.00,CLR,,0.01,WeatherDisplay:10.37,2013-09-22 23:43:00,
2013-09-22 19:48:00,67.7,59.5,29.83,South,190,0.0,0.0,75,0.00,CLR,,0.01,WeatherDisplay:10.37,2013-09-22 23:48:00,
2013-09-22 19:53:00,67.2,59.7,29.83,South,190,0.0,0.0,77,0.00,CLR,,0.01,WeatherDisplay:10.37,2013-09-22 23:53:00,
2013-09-22 19:58:00,66.7,59.6,29.83,South,190,0.0,0.0,78,0.00,CLR,,0.01,WeatherDisplay:10.37,2013-09-22 23:58:00,
2013-09-22 20:03:00,66.3,59.2,29.84,South,190,0.0,0.0,78,0.00,CLR,,0.01,WeatherDisplay:10.37,2013-09-23 00:03:00,
2013-09-22 20:08:00,65.8,59.1,29.84,South,190,0.0,0.0,79,0.00,CLR,,0.01,WeatherDisplay:10.37,2013-09-23 00:08:00,
2013-09-22 20:13:00,65.4,59.1,29.84,South,190,0.0,0.0,80,0.00,CLR,,0.01,WeatherDisplay:10.37,2013-09-23 00:13:00,
2013-09-22 20:18:00,65.0,59.0,29.85,South,190,0.0,0.0,81,0.00,CLR,,0.01,WeatherDisplay:10.37,2013-09-23 00:18:00,
2013-09-22 20:24:00,64.8,59.2,29.85,South,190,0.0,0.0,82,0.00,CLR,,0.01,WeatherDisplay:10.37,2013-09-23 00:24:00,
2013-09-22 20:29:00,64.5,58.9,29.85,South,190,0.0,0.0,82,0.00,CLR,,0.01,WeatherDisplay:10.37,2013-09-23 00:29:00,
2013-09-22 20:34:00,64.2,58.9,29.86,South,190,0.0,0.0,83,0.00,CLR,,0.01,WeatherDisplay:10.37,2013-09-23 00:34:00,
2013-09-22 20:39:00,63.9,58.6,29.86,South,190,0.0,0.0,83,0.00,CLR,,0.01,WeatherDisplay:10.37,2013-09-23 00:39:00,
2013-09-22 20:44:00,63.6,58.7,29.86,South,190,0.0,0.0,84,0.00,CLR,,0.01,WeatherDisplay:10.37,2013-09-23 00:44:00,
2013-09-22 20:49:00,63.4,58.5,29.86,South,190,0.0,0.0,84,0.00,CLR,,0.01,WeatherDisplay:10.37,2013-09-23 00:49:00,
2013-09-22 20:54:00,63.1,58.2,29.86,South,190,0.0,0.0,84,0.00,CLR,,0.01,WeatherDisplay:10.37,2013-09-23 00:54:00,
2013-09-22 20:59:00,62.8,57.9,29.86,South,190,0.0,0.0,84,0.00,CLR,,0.01,WeatherDisplay:10.37,2013-09-23 00:59:00,
2013-09-22 21:04:00,62.6,57.7,29.86,South,190,0.0,0.0,84,0.00,CLR,,0.01,WeatherDisplay:10.37,2013-09-23 01:04:00,
2013-09-22 21:09:00,62.3,57.4,29.87,South,190,0.0,0.0,84,0.00,CLR,,0.01,WeatherDisplay:10.37,2013-09-23 01:09:00,
2013-09-22 21:14:00,62.0,57.1,29.87,South,190,0.0,0.0,84,0.00,CLR,,0.01,WeatherDisplay:10.37,2013-09-23 01:14:00,
2013-09-22 21:19:00,61.8,57.2,29.87,South,190,0.0,0.0,85,0.00,CLR,,0.01,WeatherDisplay:10.37,2013-09-23 01:19:00,
2013-09-22 21:24:00,61.5,56.9,29.87,South,190,0.0,0.0,85,0.00,CLR,,0.01,WeatherDisplay:10.37,2013-09-23 01:24:00,
2013-09-22 21:29:00,61.3,57.4,29.87,South,190,0.0,0.0,87,0.00,CLR,,0.01,WeatherDisplay:10.37,2013-09-23 01:29:00,
2013-09-22 21:34:00,61.1,57.5,29.87,South,190,0.0,0.0,88,0.00,CLR,,0.01,WeatherDisplay:10.37,2013-09-23 01:34:00,
2013-09-22 21:39:00,60.9,57.3,29.87,South,190,0.0,0.0,88,0.00,CLR,,0.01,WeatherDisplay:10.37,2013-09-23 01:39:00,
2013-09-22 21:44:00,60.7,57.1,29.88,South,190,0.0,0.0,88,0.00,CLR,,0.01,WeatherDisplay:10.37,2013-09-23 01:44:00,
2013-09-22 21:49:00,60.5,56.9,29.88,South,190,0.0,0.0,88,0.00,CLR,,0.01,WeatherDisplay:10.37,2013-09-23 01:49:00,
2013-09-22 21:54:00,60.5,57.2,29.89,South,190,0.0,0.0,89,0.00,CLR,,0.01,WeatherDisplay:10.37,2013-09-23 01:54:00,
2013-09-22 21:59:00,60.4,57.5,29.89,South,190,0.0,0.0,90,0.00,CLR,,0.01,WeatherDisplay:10.37,2013-09-23 01:59:00,
2013-09-22 22:04:00,60.4,57.5,29.89,South,190,0.0,0.0,90,0.00,CLR,,0.01,WeatherDisplay:10.37,2013-09-23 02:04:00,
2013-09-22 22:09:00,60.3,57.4,29.90,South,190,0.0,0.0,90,0.00,CLR,,0.01,WeatherDisplay:10.37,2013-09-23 02:09:00,
2013-09-22 22:14:00,60.3,57.7,29.90,South,190,0.0,0.0,91,0.00,CLR,,0.01,WeatherDisplay:10.37,2013-09-23 02:14:00,
2013-09-22 22:19:00,60.3,57.7,29.90,South,190,0.0,0.0,91,0.00,CLR,,0.01,WeatherDisplay:10.37,2013-09-23 02:19:00,
2013-09-22 22:24:00,60.3,57.7,29.90,South,190,0.0,0.0,91,0.00,CLR,,0.01,WeatherDisplay:10.37,2013-09-23 02:24:00,
2013-09-22 22:29:00,60.4,57.8,29.90,South,190,0.0,0.0,91,0.00,CLR,,0.01,WeatherDisplay:10.37,2013-09-23 02:29:00,
2013-09-22 22:34:00,60.5,57.9,29.90,South,190,0.0,0.0,91,0.00,CLR,,0.01,WeatherDisplay:10.37,2013-09-23 02:34:00,
2013-09-22 22:39:00,60.5,57.9,29.90,South,190,0.0,0.0,91,0.00,CLR,,0.01,WeatherDisplay:10.37,2013-09-23 02:39:00,
2013-09-22 22:45:00,60.6,57.7,29.90,South,190,0.0,0.0,90,0.00,CLR,,0.01,WeatherDisplay:10.37,2013-09-23 02:45:00,
2013-09-22 22:50:00,60.7,57.7,29.90,South,190,0.0,0.0,90,0.00,CLR,,0.01,WeatherDisplay:10.37,2013-09-23 02:50:00,
2013-09-22 22:55:00,60.7,57.7,29.91,South,190,0.0,0.0,90,0.00,CLR,,0.01,WeatherDisplay:10.37,2013-09-23 02:55:00,
2013-09-22 23:00:00,60.7,57.7,29.91,South,190,0.0,0.0,90,0.00,CLR,,0.01,WeatherDisplay:10.37,2013-09-23 03:00:00,
2013-09-22 23:05:00,60.6,57.7,29.91,South,190,0.0,0.0,90,0.00,CLR,,0.01,WeatherDisplay:10.37,2013-09-23 03:05:00,
2013-09-22 23:10:00,60.6,57.7,29.91,South,190,0.0,0.0,90,0.00,CLR,,0.01,WeatherDisplay:10.37,2013-09-23 03:10:00,
2013-09-22 23:15:00,60.6,58.0,29.91,South,190,0.0,0.0,91,0.00,CLR,,0.01,WeatherDisplay:10.37,2013-09-23 03:15:00,
2013-09-22 23:20:00,60.6,58.0,29.91,South,190,0.0,0.0,91,0.00,CLR,,0.01,WeatherDisplay:10.37,2013-09-23 03:20:00,
2013-09-22 23:25:00,60.6,58.0,29.92,South,190,0.0,0.0,91,0.00,CLR,,0.01,WeatherDisplay:10.37,2013-09-23 03:25:00,
2013-09-22 23:30:00,60.6,58.0,29.92,South,190,0.0,0.0,91,0.00,CLR,,0.01,WeatherDisplay:10.37,2013-09-23 03:30:00,
2013-09-22 23:35:00,60.5,57.6,29.92,South,190,0.0,0.0,90,0.00,CLR,,0.01,WeatherDisplay:10.37,2013-09-23 03:35:00,
2013-09-22 23:40:00,60.5,57.6,29.92,South,190,0.0,0.0,90,0.00,CLR,,0.01,WeatherDisplay:10.37,2013-09-23 03:40:00,
2013-09-22 23:45:00,60.5,57.9,29.92,South,190,0.0,0.0,91,0.00,CLR,,0.01,WeatherDisplay:10.37,2013-09-23 03:45:00,
2013-09-22 23:50:00,60.5,57.9,29.92,South,190,0.0,0.0,91,0.00,CLR,,0.01,WeatherDisplay:10.37,2013-09-23 03:50:00,
2013-09-22 23:55:00,60.5,57.6,29.92,South,190,0.0,0.0,90,0.00,CLR,,0.01,WeatherDisplay:10.37,2013-09-23 03:55:00,